Sigfox identifier Datetime Temperature Humidity SNR
003C0CAF 2018-10-09 08:08:50 20.5 37 17.7
003C0CAF 2018-10-09 07:00:44 20.5 37 17.7
003C0CAF 2018-10-09 05:52:44 20.5 37 17.8
003C0CAF 2018-10-09 04:44:41 20.4 37 17.7
003C0CAF 2018-10-09 01:20:36 20.4 37 13.2
003C0CAF 2018-10-09 00:12:32 20.4 37 13.4
003C0CAF 2018-10-08 23:04:31 20.5 36 13.5
003C0CAF 2018-10-08 21:56:28 20.4 36 13.5
003C0CAF 2018-10-08 20:48:25 20.4 36 13.4
003C0CAF 2018-10-08 19:40:25 20.4 36 13.6
003C0CAF 2018-10-08 18:32:24 20.4 36 13.6
003C0CAF 2018-10-08 17:24:19 20.4 36 13.5
003C0CAF 2018-10-08 16:16:18 20.4 36 13.7
003C0CAF 2018-10-08 14:00:12 20.4 36 13.6
003C0CAF 2018-10-08 09:28:05 20 31 13.5
003C0CAF 2018-10-08 08:20:02 20 32 13.8
003C0CAF 2018-10-08 06:03:54 20.2 33 13.9
003C0CAF 2018-10-08 04:55:47 20.1 34 14
003C0CAF 2018-10-08 03:47:45 20.1 34 14.1
003C0CAF 2018-10-08 02:39:48 20.1 35 14.2
003C0CAF 2018-10-08 01:31:43 20.2 35 14.2
003C0CAF 2018-10-08 00:23:46 20.2 36 14.1
003C0CAF 2018-10-07 23:15:41 20.2 37 13.9
003C0CAF 2018-10-07 22:07:39 20.2 37 14
003C0CAF 2018-10-07 20:59:40 20.4 38 13.8
003C0CAF 2018-10-07 19:51:39 20.3 38 13.8
003C0CAF 2018-10-07 18:43:35 20.3 38 13.7
003C0CAF 2018-10-07 17:35:32 20.4 38 13.8
003C0CAF 2018-10-07 16:27:33 20.3 38 13.5
003C0CAF 2018-10-07 15:19:29 20.3 38 13.6
003C0CAF 2018-10-07 14:11:30 20.4 38 13.5
003C0CAF 2018-10-07 13:03:26 20.4 38 13.4
003C0CAF 2018-10-07 11:55:25 20.4 38 13.5
003C0CAF 2018-10-07 10:47:24 20.4 38 13.7
003C0CAF 2018-10-07 09:39:20 20.4 38 13.7
003C0CAF 2018-10-07 07:23:20 20.4 38 13.6
003C0CAF 2018-10-07 06:15:20 20.4 39 13.8
003C0CAF 2018-10-07 05:07:14 20.4 39 13.7
003C0CAF 2018-10-07 02:51:09 20.4 39 13.8
003C0CAF 2018-10-07 01:43:05 20.5 40 13.9
003C0CAF 2018-10-07 00:35:01 20.6 40 13.7
003C0CAF 2018-10-06 23:27:00 20.6 40 13.5
003C0CAF 2018-10-06 22:18:56 20.6 40 13.9
003C0CAF 2018-10-06 21:10:55 20.6 40 14.1
003C0CAF 2018-10-06 20:02:57 20.6 40 13.8
003C0CAF 2018-10-06 18:54:52 20.6 39 13.9
003C0CAF 2018-10-06 17:46:50 20.6 39 13.9
003C0CAF 2018-10-06 16:38:49 20.6 40 14
003C0CAF 2018-10-06 14:22:50 20.6 40 13.9
003C0CAF 2018-10-06 13:14:49 20.6 40 13.9
003C0CAF 2018-10-06 12:06:48 20.6 39 14.1
003C0CAF 2018-10-06 10:58:46 20.6 39 14.1
003C0CAF 2018-10-06 09:50:43 20.7 39 13.9
003C0CAF 2018-10-06 08:42:40 20.7 39 14.1
003C0CAF 2018-10-06 07:34:40 20.8 40 14
003C0CAF 2018-10-06 06:26:40 20.8 40 13.9
003C0CAF 2018-10-06 05:18:34 20.8 41 14.1
003C0CAF 2018-10-06 04:10:31 20.8 41 14
003C0CAF 2018-10-06 03:02:31 20.9 41 13.9
003C0CAF 2018-10-06 01:54:30 20.9 42 13.8
003C0CAF 2018-10-06 00:46:29 21 42 13.8
003C0CAF 2018-10-05 23:38:24 21 43 13.6
003C0CAF 2018-10-05 22:30:23 21 43 13.9
003C0CAF 2018-10-05 21:22:19 21 44 13.9
003C0CAF 2018-10-05 20:14:24 21.1 44 13.8
003C0CAF 2018-10-05 19:06:25 21.2 45 13.8
003C0CAF 2018-10-05 17:58:26 21.2 45 13.8
003C0CAF 2018-10-05 16:50:21 21.3 46 13.2
003C0CAF 2018-10-05 14:34:20 21.2 46 13.1
003C0CAF 2018-10-05 13:26:21 21 44 13.1
003C0CAF 2018-10-05 12:18:22 21 42 13.1
003C0CAF 2018-10-05 11:10:23 20.8 40 13.2
003C0CAF 2018-10-05 10:02:17 20.6 36 12.9
003C0CAF 2018-10-05 08:54:13 20.6 34 13.1
003C0CAF 2018-10-05 07:46:10 20.6 32 13.2
003C0CAF 2018-10-05 06:38:07 20.6 30 13
003C0CAF 2018-10-05 05:30:07 20.6 30 13.2
003C0CAF 2018-10-05 04:22:00 20.6 30 13.2
003C0CAF 2018-10-05 03:13:57 20.6 30 13.1
003C0CAF 2018-10-05 02:05:49 20.7 30 13.1
003C0CAF 2018-10-05 00:57:42 20.8 31 12.9
003C0CAF 2018-10-04 23:49:37 20.8 31 12.6
003C0CAF 2018-10-04 22:41:28 21 31 12.5
003C0CAF 2018-10-04 21:33:23 21 31 12.3
003C0CAF 2018-10-04 20:25:18 21 30 12.6
003C0CAF 2018-10-04 19:17:17 21.1 30 13.1
003C0CAF 2018-10-04 18:09:10 21.2 30 14.1
003C0CAF 2018-10-04 17:01:04 21.4 32 7.6
003C0CAF 2018-10-04 15:52:59 21 31 8.2
003C0CAF 2018-10-04 14:44:51 20.6 44 0